Reklama

Seznam meteostanic a jejich METAR

Vyhledat místa podle abecedy:
A B C D E F G H I J K L M N O P Q R S T U V W X Y Z

Filtrovat:

ID stanice:
a/nebo
Název místa (fulltext):
 
Místo (ID)Naposledy načteno 
Panama City (MPTO) 03.06.2020 17:00 UTC Zobrazit METAR
MPTO 031700Z 12008KT 9999 SCT018 29/26 Q1012 NOSIG
Paramaribo (SMZO) 03.06.2020 15:00 UTC Zobrazit METAR
SMZO 031500Z 09005KT 9999 SCT025 32/24 Q1013 NOSIG
Paris (LFPG) 03.06.2020 18:00 UTC Zobrazit METAR
LFPG 031800Z AUTO 02015KT CAVOK 23/11 Q1001 TEMPO VRB15G30KT 4000 TSRA SCT040CB
Paro (VQPR) 03.06.2020 11:00 UTC Zobrazit METAR
VQPR 031100Z 13016KT 9999 SCT030 BKN070 23/08 Q1014
Phnom Penh (VDPP) 03.06.2020 20:00 UTC Zobrazit METAR
VDPP 032000Z 18002KT 9000 FEW017 SCT040 27/24 Q1006
Plovdiv (LBPD) 03.06.2020 19:00 UTC Zobrazit METAR
LBPD 031900Z AUTO 28006KT 9999 FEW086 18/05 Q1008 NOSIG
Pohnpei I (PTPN) 03.06.2020 02:54 UTC Zobrazit METAR
PTPN 030254Z 07006KT 15SM BKN018 OVC300 29/26 A2985 RMK LAST
Ponta Delgada (LPPD) 03.06.2020 20:00 UTC Zobrazit METAR
LPPD 032000Z 02015KT 8000 -RA SCT008 BKN016 17/16 Q1010
Pori (EFPO) 03.06.2020 19:50 UTC Zobrazit METAR
EFPO 031950Z AUTO 26003KT CAVOK 12/06 Q1010
Port Moresby (AYPY) 03.06.2020 20:00 UTC Zobrazit METAR
AYPY 032000Z VRB03KT 9999 FEW008 FEW040 23/23 Q1011=
Port of Spain (TTPP) 03.06.2020 20:00 UTC Zobrazit METAR
TTPP 032000Z 10016KT 9999 FEW024 31/19 Q1012 NOSIG
Port Vila (NVVV) 03.06.2020 20:00 UTC Zobrazit METAR
NVVV 032000Z 15004KT 9999 FEW018 BKN020 25/24 Q1013 RESH
Port-au-Prince (MTPP) 03.06.2020 19:59 UTC Zobrazit METAR
MTPP 031959Z AUTO 30010KT 9000 ////// 31/22 Q1012 A2990 NOSIG
Porto (LPPR) 03.06.2020 20:00 UTC Zobrazit METAR
LPPR 032000Z 31003KT 270V340 9999 FEW010 BKN012 18/15 Q1011
Poznan (EPPO) 03.06.2020 20:00 UTC Zobrazit METAR
EPPO 032000Z VRB01KT CAVOK 12/05 Q1004
Prague (LKPR) 03.06.2020 20:00 UTC Zobrazit METAR
LKPR 032000Z 19012KT 9999 FEW045 14/09 Q1003 NOSIG
Praia (GVFM) Zatím nenačteno  
Pyongyang (ZKPY) Zatím nenačteno  
Quito (SEQU) 25.02.2015 15:00 UTC Zobrazit METAR
SEQU 251500Z 01004KT 9999 FEW026 SCT300 18/11 Q1026 NOSIG RMK A3031
Rarotonga I (NCRG) 03.06.2020 20:00 UTC Zobrazit METAR
NCRG 032000Z AUTO 11008G19KT 070V160 9999 FEW026/// SCT031/// BKN060/// 25/19 Q1017
Reykjavik (BIRK) 03.06.2020 20:00 UTC Zobrazit METAR
BIRK 032000Z 30009KT 9999 FEW008 SCT016 BKN140 09/07 Q1018
Riga (EVRA) 03.06.2020 19:50 UTC Zobrazit METAR
EVRA 031950Z 00000KT CAVOK 09/08 Q1007 NOSIG
Rimini (LIPR) 03.06.2020 19:50 UTC Zobrazit METAR
LIPR 031950Z 22006KT CAVOK 22/12 Q1006
Riyadh (OERY) 03.06.2020 19:00 UTC Zobrazit METAR
OERY 031900Z 14005KT CAVOK 37/02 Q1009
Road Town (TUPJ) 03.06.2020 20:00 UTC Zobrazit METAR
TUPJ 032000Z 09009KT SCT019 30/23 A3000 RMK Q1016 VIS16KM
Rodos (LGRP) 03.06.2020 19:50 UTC Zobrazit METAR
LGRP 031950Z 22005KT 9999 FEW018 19/17 Q1011 NOSIG
Rome (LIRF) 03.06.2020 19:50 UTC Zobrazit METAR
LIRF 031950Z 16004KT 140V200 CAVOK 20/17 Q1010 NOSIG
Roseau (TDCF) 03.06.2020 19:00 UTC Zobrazit METAR
TDCF 031900Z 10007KT 9999 BKN014 29/22 Q1014
Rotterdam (EHRD) 03.06.2020 19:55 UTC Zobrazit METAR
EHRD 031955Z AUTO 34007KT 290V020 9999 BKN012 14/12 Q1003 BECMG SCT015
Rzeszow (EPRZ) 03.06.2020 20:00 UTC Zobrazit METAR
EPRZ 032000Z 25003KT CAVOK 10/09 Q1005
Saipan Island (PGSN) 03.06.2020 19:54 UTC Zobrazit METAR
PGSN 031954Z 08008KT 10SM FEW019 28/24 A2989 RMK AO2 SLP143 T02780244
Salzburg (LOWS) 03.06.2020 19:50 UTC Zobrazit METAR
LOWS 031950Z AUTO 14008KT 9999 BKN130 17/08 Q1003
Samara (UWWW) Zatím nenačteno  
San Andres Island (SKSP) 03.06.2020 19:00 UTC Zobrazit METAR
SKSP 031900Z 09007KT 040V180 5000 RA FEW015 SCT080 BKN200 27/26 A2982
San Jose (MRPV) 03.06.2020 20:00 UTC Zobrazit METAR
MRPV 032000Z 29013KT 9999 RA SCT020 BKN200 25/20 A2994 NOSIG
San Juan (TJSJ) 03.06.2020 19:56 UTC Zobrazit METAR
TJSJ 031956Z 07018KT 10SM SCT039 32/23 A2997 RMK AO2 SLP149 T03220233
San Salvador (MSLP) 03.06.2020 19:50 UTC Zobrazit METAR
MSLP 031950Z 29004KT 260V330 9999 FEW007 SCT015 26/25 Q1009 A2979 NOSIG
Sanaa (OYSN) 08.02.2017 13:00 UTC Zobrazit METAR
OYSN 081300Z 03008KT 9999 FEW030 25/M05 Q1022
Santiago (SCEL) 03.06.2020 20:00 UTC Zobrazit METAR
SCEL 032000Z 36005KT 9999 SCT060 BKN150 11/05 Q1019 NOSIG
Santiago (LEST) 03.06.2020 20:00 UTC Zobrazit METAR
LEST 032000Z 32003KT 270V010 9999 FEW018 15/13 Q1012 NOSIG
Santo Domingo (MDHE) 08.04.2012 12:00 UTC  
Santorini (LGSR) 03.06.2020 15:50 UTC Zobrazit METAR
LGSR 031550Z 24010KT 9999 FEW025 24/12 Q1010
Sao Tome (FPST) 03.06.2020 13:00 UTC Zobrazit METAR
FPST 031300Z 27006KT 9999 FEW020 BKN110 30/26 Q1013 NOSIG
Sarajevo (LQSA) 03.06.2020 16:00 UTC Zobrazit METAR
LQSA 031600Z 26012KT 210V290 9999 SCT060 19/07 Q1007 TEMPO SHRA FEW030TCU BKN040
Saratov (UWSS) 06.03.2017 17:00 UTC Zobrazit METAR
UWSS 061700Z CAVOK 04/00 Q1024 R12/190055 NOSIG RMK QFE756
Sarmellek (LHSM) 03.06.2020 19:45 UTC Zobrazit METAR
LHSM 031945Z AUTO 24004KT CAVOK 15/12 Q1006
Seinajoki (EFSI) 03.06.2020 19:50 UTC Zobrazit METAR
EFSI 031950Z AUTO 00000KT CAVOK 11/07 Q1010
Seoul/Incheon (RKSI) 03.06.2020 15:00 UTC Zobrazit METAR
RKSI 031500Z 18005KT 150V230 2400 BR BKN002 OVC020 18/17 Q1003 NOSIG
Seville (LEZL) 03.06.2020 20:00 UTC Zobrazit METAR
LEZL 032000Z 23010KT 200V260 CAVOK 23/14 Q1010 NOSIG
Seychelles (FSIA) 03.06.2020 20:00 UTC Zobrazit METAR
FSIA 032000Z 15007KT 120V190 9999 FEW018 29/25 Q1011 NOSIG
Předchozí 1 ... 5 6 7 8 9 Další
Reklama

Lunární kalendář

  • 05.06.Fáze měsíce uplnek
  • 13.06.Fáze měsíce posl_ctvrt
  • 21.06.Fáze měsíce nov
  • 28.06.Fáze měsíce prv_ctvrt



Reklama
Meteodomečky

Počasí na Váš email

Emaily jsou bez reklamy a bez spamu



Odhlásit newsletter

Reklama


Další české internetové stránky (nejen) o počasí najdete v katalogu TOPlist - weby o počasí nebo vyhledejte na internetu, co jste tu na 🌞 Slunečnu ⛅ zatím nenašli:

Reklama